LFBDLFBY

Guest
Details From LFBD - Bordeaux Merignac
To LFBY - Dax Seyresse
Flight Number -
Tags generated
Created
Modified
Stats Distance 70 nm / 130 km
Max Altitude 9,300 ft / 2,835 m
Waypoints 3
Social Downloads 1
Likes 0
Share VATSIM

Download

Looking for another format? Having issues loading an existing format? Contact us
Advertisement - Login to hide

Notes

Basic altitude profile: - Ascent Rate: 2500ft/min - Ascent Speed: 250kts - Cruise Altitude: 35000ft - Cruise Speed: 420kts - Descent Rate: 1500ft/min - Descent Speed: 250kts Options: - Use NATs: yes - Use PACOTS: yes - Use low airways: yes - Use high airways: yes

Route

LFBD LULUT LFBY

ID Type Via Altitude Latitude Longitude Leg Dist Tot Dist Heading (true) Name
O LFBD APT - 0 ft / 0 m 44.82876˚ -0.71476˚ - 0 nm - Bordeaux Merignac
LULUT FIX - 9,300 ft / 2,835 m 44.39861˚ -0.83972˚ 26 nm 26 nm 192° / 192° -
O LFBY APT - 0 ft / 0 m 43.69000˚ -1.06700˚ 43 nm 70 nm 193° / 193° Dax Seyresse

Altitude Profile

Advertisement - Login to hide

LFBD

Details ICAO LFBD (BOD)
Name Bordeaux Merignac
Region France
Timezone Europe/Paris (UTC+2.0)
Stats Elevation 166 ft / 51 m (AMSL)
Location 44.828762° -0.714755°
Runways 2
Magnetic Variation 0.012° W

METAR

LFBD 220100Z AUTO 21007KT CAVOK 16/12 Q1012 TEMPO FEW050CB SCT060TCU

Decode

TAF

TAF LFBD 212300Z 2200/2306 26005KT 9999 FEW060CB TEMPO 2200/2217 -SHRA FEW050CB SCT060TCU PROB30 2204/2207 4000 BR BKN005 TEMPO 2212/2217 4500 SHRA SCT040CB BKN050TCU BECMG 2219/2221 CAVOK BECMG 2302/2305 2000 BR OVC003 TX25/2212Z TN12/2204Z

Decode

Departure Runways

ID Width Length Bearing (true) Bearing (mag) Surface Threshold Offset Overrun Length
05 148 ft / 45 m 10,164 ft / 3,098 m 45.48° 45.49° Asphalt 26 ft / 8 m 1,145 ft / 349 m
11 148 ft / 45 m 7,931 ft / 2,417 m 106.45° 106.46° Asphalt 26 ft / 8 m 1,198 ft / 365 m
23 148 ft / 45 m 10,164 ft / 3,098 m 225.50° 225.51° Asphalt 39 ft / 12 m 1,266 ft / 386 m
29 148 ft / 45 m 7,931 ft / 2,417 m 286.47° 286.48° Asphalt 33 ft / 10 m 1,201 ft / 366 m

LFBY

Details ICAO LFBY
Name Dax Seyresse
Region France
Timezone Europe/Paris (UTC+2.0)
Stats Elevation 108 ft / 33 m (AMSL)
Location 43.689995° -1.066997°
Runways 1
Magnetic Variation 0.051° W

METAR

LFBY 220100Z AUTO 24002KT //// // BKN012 16/15 Q1013

Decode

TAF

Not found

Destination Runways

ID Width Length Bearing (true) Bearing (mag) Surface Threshold Offset Overrun Length
08 98 ft / 30 m 2,462 ft / 751 m 74.00° 74.05° Dirt 0 ft / 0 m 0 ft / 0 m
26 98 ft / 30 m 2,462 ft / 751 m 254.00° 254.05° Dirt 0 ft / 0 m 0 ft / 0 m